createdAt,value
2018-11-26T00:01:19.213Z,94.93
2018-11-26T00:03:46.184Z,94.81
2018-11-26T00:06:13.393Z,95.91
2018-11-26T00:08:41.176Z,94.54
2018-11-26T00:11:42.835Z,95.69
2018-11-26T00:14:10.347Z,95.47
2018-11-26T00:16:37.297Z,95.69
2018-11-26T00:19:05.156Z,95.55
2018-11-26T00:21:32.117Z,95.13
2018-11-26T00:23:59.080Z,96.08
2018-11-26T00:26:26.010Z,94.96
2018-11-26T00:28:53.146Z,94.30
2018-11-26T00:31:20.073Z,95.80
2018-11-26T00:33:47.021Z,95.37
2018-11-26T00:36:13.998Z,96.21
2018-11-26T00:38:41.063Z,95.85
2018-11-26T00:41:08.085Z,96.36
2018-11-26T00:43:35.177Z,95.34
2018-11-26T00:46:02.095Z,96.25
2018-11-26T00:48:29.005Z,95.42
2018-11-26T00:50:55.922Z,95.91
2018-11-26T00:53:22.834Z,95.74
2018-11-26T00:55:49.745Z,96.06
2018-11-26T00:58:16.654Z,95.60
2018-11-26T01:00:43.568Z,95.80
2018-11-26T01:03:10.490Z,95.02
2018-11-26T01:05:39.273Z,94.94
2018-11-26T01:08:06.253Z,95.42
2018-11-26T01:10:33.170Z,95.28
2018-11-26T01:13:00.097Z,95.94
2018-11-26T01:15:27.018Z,95.64
2018-11-26T01:17:53.947Z,95.42
2018-11-26T01:20:20.937Z,95.47
2018-11-26T01:22:47.849Z,95.28
2018-11-26T01:25:14.905Z,93.98
2018-11-26T01:27:41.830Z,94.37
2018-11-26T01:30:09.001Z,94.73
2018-11-26T01:32:35.989Z,95.45
2018-11-26T01:35:02.978Z,95.64
2018-11-26T01:37:29.927Z,95.94
2018-11-26T01:39:56.821Z,95.90
2018-11-26T01:42:23.744Z,95.86
2018-11-26T01:44:50.709Z,95.63
2018-11-26T01:47:17.625Z,95.81
2018-11-26T01:49:44.536Z,95.10
2018-11-26T01:52:11.449Z,95.04
2018-11-26T01:54:38.350Z,95.79
2018-11-26T01:57:05.337Z,95.53
2018-11-26T01:59:32.239Z,95.62
2018-11-26T02:01:59.157Z,95.20
2018-11-26T02:04:26.063Z,96.14
2018-11-26T02:06:52.981Z,95.77
2018-11-26T02:09:19.909Z,95.03
2018-11-26T02:11:46.824Z,95.81
2018-11-26T02:14:13.806Z,95.08
2018-11-26T02:16:40.717Z,95.55
2018-11-26T02:19:07.631Z,95.81
2018-11-26T02:21:34.544Z,95.23
2018-11-26T02:24:01.489Z,95.38
2018-11-26T02:26:28.408Z,95.27
2018-11-26T02:28:55.306Z,95.24
2018-11-26T02:31:22.201Z,96.11
2018-11-26T02:33:49.094Z,95.25
2018-11-26T02:36:16.011Z,95.12
2018-11-26T02:38:42.896Z,95.69
2018-11-26T02:41:09.810Z,95.84
2018-11-26T02:43:36.720Z,95.31
2018-11-26T02:46:03.666Z,95.53
2018-11-26T02:48:30.565Z,95.04
2018-11-26T02:50:57.462Z,95.48
2018-11-26T02:53:24.353Z,95.96
2018-11-26T02:55:51.600Z,95.66
2018-11-26T02:58:18.525Z,95.67
2018-11-26T03:00:46.207Z,94.92
2018-11-26T03:03:14.001Z,94.70
2018-11-26T03:05:40.962Z,95.06
2018-11-26T03:08:07.922Z,94.56
2018-11-26T03:10:34.833Z,94.89
2018-11-26T03:13:01.751Z,94.34
2018-11-26T03:15:28.645Z,94.56
2018-11-26T03:17:55.574Z,95.05
2018-11-26T03:20:22.485Z,94.96
2018-11-26T03:22:49.406Z,95.82
2018-11-26T03:25:16.326Z,94.74
2018-11-26T03:27:43.246Z,94.61
2018-11-26T03:30:11.600Z,95.76
2018-11-26T03:32:38.558Z,95.78
2018-11-26T03:35:06.488Z,96.06
2018-11-26T03:37:33.413Z,95.73
2018-11-26T03:40:00.329Z,95.99
2018-11-26T03:42:27.276Z,96.07
2018-11-26T03:44:54.171Z,95.91
2018-11-26T03:47:21.088Z,95.09
2018-11-26T03:49:48.001Z,95.35
2018-11-26T03:52:14.929Z,95.21
2018-11-26T03:54:41.839Z,96.53
2018-11-26T03:57:08.747Z,96.15
2018-11-26T03:59:35.685Z,96.12
2018-11-26T04:02:02.614Z,95.74
2018-11-26T04:04:29.537Z,96.19
2018-11-26T04:06:56.457Z,96.62
2018-11-26T04:09:23.380Z,95.99
2018-11-26T04:11:50.293Z,95.52
2018-11-26T04:14:17.214Z,96.69
2018-11-26T04:16:44.133Z,96.24
2018-11-26T04:19:11.047Z,95.39
2018-11-26T04:21:37.969Z,95.42
2018-11-26T04:24:05.188Z,96.08
2018-11-26T04:26:32.107Z,95.83
2018-11-26T04:28:59.034Z,95.04
2018-11-26T04:31:26.023Z,95.34
2018-11-26T04:33:52.986Z,94.72
2018-11-26T04:36:20.013Z,94.93
2018-11-26T04:38:46.942Z,95.68
2018-11-26T04:41:13.886Z,94.45
2018-11-26T04:43:40.801Z,95.00
2018-11-26T04:46:07.768Z,94.67
2018-11-26T04:48:34.680Z,94.64
2018-11-26T04:51:01.584Z,94.62
2018-11-26T04:53:28.489Z,95.06
2018-11-26T04:55:55.386Z,94.15
2018-11-26T04:58:22.311Z,94.73
2018-11-26T05:00:49.213Z,94.75
2018-11-26T05:03:16.150Z,95.86
2018-11-26T05:05:43.053Z,94.61
2018-11-26T05:08:09.998Z,95.12
2018-11-26T05:10:36.904Z,95.65
2018-11-26T05:13:03.864Z,95.47
2018-11-26T05:15:30.769Z,96.23
2018-11-26T05:18:02.070Z,95.47
2018-11-26T05:20:29.013Z,95.73
2018-11-26T05:22:55.917Z,95.12
2018-11-26T05:25:22.813Z,94.95
2018-11-26T05:27:49.700Z,94.92
2018-11-26T05:30:16.620Z,94.47
2018-11-26T05:32:43.492Z,95.99
2018-11-26T05:35:11.263Z,95.03
2018-11-26T05:37:38.175Z,94.55
2018-11-26T05:40:08.566Z,94.73
2018-11-26T05:42:35.465Z,94.76
2018-11-26T05:45:02.550Z,94.62
2018-11-26T05:47:29.422Z,94.59
2018-11-26T05:49:56.329Z,94.97
2018-11-26T05:52:23.214Z,95.78
2018-11-26T05:54:50.109Z,95.64
2018-11-26T05:57:17.002Z,95.29
2018-11-26T05:59:43.932Z,95.06
2018-11-26T06:02:10.833Z,95.53
2018-11-26T06:04:37.745Z,94.90
2018-11-26T06:07:04.812Z,95.58
2018-11-26T06:09:31.717Z,95.43
2018-11-26T06:11:58.604Z,96.18
2018-11-26T06:14:25.500Z,94.97
2018-11-26T06:16:53.644Z,95.22
2018-11-26T06:19:19.295Z,95.13
2018-11-26T06:21:46.189Z,95.63
2018-11-26T06:24:13.100Z,96.21
2018-11-26T06:26:39.981Z,95.25
2018-11-26T06:29:06.865Z,96.32
2018-11-26T06:31:33.780Z,96.26
2018-11-26T06:34:00.662Z,96.27
2018-11-26T06:36:27.566Z,95.19
2018-11-26T06:38:54.734Z,95.41
2018-11-26T06:41:21.635Z,96.04
2018-11-26T06:43:48.529Z,96.27
2018-11-26T06:46:15.422Z,95.33
2018-11-26T06:48:42.303Z,95.59
2018-11-26T06:51:09.205Z,95.85
2018-11-26T06:53:36.107Z,95.38
2018-11-26T06:56:03.012Z,95.09
2018-11-26T06:58:29.906Z,95.32
2018-11-26T07:00:57.627Z,95.81
2018-11-26T07:03:24.533Z,95.82
2018-11-26T07:05:51.428Z,94.99
2018-11-26T07:08:18.326Z,95.17
2018-11-26T07:10:45.233Z,95.12
2018-11-26T07:13:12.189Z,94.91
2018-11-26T07:15:39.097Z,94.91
2018-11-26T07:18:06.537Z,94.79
2018-11-26T07:20:33.450Z,95.64
2018-11-26T07:23:00.358Z,94.88
2018-11-26T07:25:27.259Z,94.96
2018-11-26T07:27:54.295Z,94.62
2018-11-26T07:30:23.292Z,95.05
2018-11-26T07:32:50.201Z,95.24
2018-11-26T07:35:17.123Z,94.36
2018-11-26T07:37:44.039Z,94.45
2018-11-26T07:40:13.055Z,94.62
2018-11-26T07:42:41.721Z,93.60
2018-11-26T07:45:10.202Z,93.70
2018-11-26T07:47:37.134Z,94.30
2018-11-26T07:50:06.293Z,94.19
2018-11-26T07:52:33.193Z,93.96
2018-11-26T07:55:00.087Z,93.94
2018-11-26T07:57:26.989Z,94.48
2018-11-26T07:59:53.877Z,93.65
2018-11-26T08:02:20.777Z,94.41
2018-11-26T08:04:47.697Z,93.66
2018-11-26T08:07:14.601Z,94.62
2018-11-26T08:09:42.361Z,94.03
2018-11-26T08:12:08.420Z,93.56
2018-11-26T08:14:35.326Z,93.51
2018-11-26T08:17:02.229Z,94.60
2018-11-26T08:19:29.124Z,94.52
2018-11-26T08:21:56.038Z,93.57
2018-11-26T08:24:22.962Z,93.15
2018-11-26T08:26:49.855Z,93.57
2018-11-26T08:29:16.756Z,93.84
2018-11-26T08:31:43.656Z,94.00
2018-11-26T08:34:10.584Z,93.48
2018-11-26T08:36:42.511Z,94.18
2018-11-26T08:39:14.329Z,94.10
2018-11-26T08:41:47.200Z,93.28
2018-11-26T08:44:18.733Z,93.28
2018-11-26T08:46:46.686Z,93.89
2018-11-26T08:49:18.549Z,93.15
2018-11-26T08:51:45.453Z,93.01
2018-11-26T08:54:13.035Z,93.02
2018-11-26T08:56:39.990Z,92.88
2018-11-26T08:59:06.898Z,93.93
2018-11-26T09:01:34.427Z,93.00
2018-11-26T09:04:03.623Z,92.79
2018-11-26T09:06:30.794Z,93.20
2018-11-26T09:08:57.704Z,92.30
2018-11-26T09:11:24.611Z,92.55
2018-11-26T09:13:52.431Z,91.81
2018-11-26T09:16:20.059Z,91.74
2018-11-26T09:18:47.496Z,90.92
2018-11-26T09:21:14.417Z,91.71
2018-11-26T09:23:41.314Z,90.96
2018-11-26T09:26:08.217Z,91.38
2018-11-26T09:28:35.118Z,90.80
2018-11-26T09:31:02.041Z,90.62
2018-11-26T09:33:28.933Z,90.24
2018-11-26T09:35:55.829Z,90.58
2018-11-26T09:38:22.725Z,90.36
2018-11-26T09:40:49.665Z,91.54
2018-11-26T09:43:16.557Z,91.24
2018-11-26T09:45:43.452Z,90.73
2018-11-26T09:48:10.374Z,91.77
2018-11-26T09:50:37.289Z,90.82
2018-11-26T09:53:04.467Z,91.53
2018-11-26T09:55:31.374Z,91.02
2018-11-26T09:57:58.278Z,91.07
2018-11-26T10:00:25.238Z,91.46
2018-11-26T10:02:52.160Z,90.39
2018-11-26T10:05:20.289Z,90.30
2018-11-26T10:07:47.191Z,90.62
2018-11-26T10:10:14.214Z,90.58
2018-11-26T10:12:41.983Z,90.51
2018-11-26T10:15:12.356Z,90.59
2018-11-26T10:17:39.253Z,90.35
2018-11-26T10:20:07.318Z,89.85
2018-11-26T10:22:34.894Z,89.11
2018-11-26T10:25:06.040Z,89.37
2018-11-26T10:27:28.750Z,90.49
2018-11-26T10:29:55.641Z,89.21
2018-11-26T10:32:22.544Z,88.62
2018-11-26T10:34:49.430Z,88.27
2018-11-26T10:37:17.514Z,89.43
2018-11-26T10:39:45.504Z,88.76
2018-11-26T10:42:14.327Z,87.95
2018-11-26T10:44:41.265Z,88.43
2018-11-26T10:47:08.161Z,88.19
2018-11-26T10:49:36.248Z,87.08
2018-11-26T10:52:04.479Z,87.14
2018-11-26T10:54:31.397Z,87.08
2018-11-26T10:56:58.304Z,86.50
2018-11-26T10:59:25.261Z,86.88
2018-11-26T11:02:01.455Z,86.83
2018-11-26T11:04:28.717Z,87.24
2018-11-26T11:06:55.951Z,87.11
2018-11-26T11:09:22.589Z,86.26
2018-11-26T11:11:49.513Z,86.95
2018-11-26T11:14:16.413Z,85.90
2018-11-26T11:16:43.323Z,85.79
2018-11-26T11:19:10.322Z,86.74
2018-11-26T11:21:37.220Z,85.98
2018-11-26T11:24:04.161Z,84.55
2018-11-26T11:26:31.125Z,84.72
2018-11-26T11:28:58.072Z,83.63
2018-11-26T11:31:24.994Z,83.97
2018-11-26T11:33:51.919Z,84.46
2018-11-26T11:36:18.880Z,83.83
2018-11-26T11:38:45.828Z,83.97
2018-11-26T11:41:12.892Z,83.46
2018-11-26T11:43:39.806Z,83.15
2018-11-26T11:46:06.743Z,83.14
2018-11-26T11:48:33.666Z,82.27
2018-11-26T11:51:00.632Z,81.04
2018-11-26T11:53:27.530Z,81.11
2018-11-26T11:55:54.458Z,82.51
2018-11-26T11:58:21.391Z,81.67
2018-11-26T12:00:48.948Z,82.06
2018-11-26T12:03:17.201Z,81.20
2018-11-26T12:05:44.157Z,80.70
2018-11-26T12:08:11.081Z,78.69
2018-11-26T12:10:38.026Z,79.06
2018-11-26T12:13:06.582Z,77.44
2018-11-26T12:15:33.834Z,77.23
2018-11-26T12:18:00.743Z,76.94
2018-11-26T12:20:27.638Z,77.15
2018-11-26T12:22:54.575Z,76.56
2018-11-26T12:25:21.526Z,75.09
2018-11-26T12:27:48.436Z,74.56
2018-11-26T12:30:18.339Z,74.50
2018-11-26T12:32:45.284Z,74.49
2018-11-26T12:35:12.209Z,74.78
2018-11-26T12:37:39.119Z,74.65
2018-11-26T12:40:09.083Z,76.73
2018-11-26T12:42:36.001Z,75.57
2018-11-26T12:45:03.087Z,76.52
2018-11-26T12:47:29.999Z,76.73
2018-11-26T12:49:56.945Z,77.66
2018-11-26T12:52:23.900Z,77.26
2018-11-26T12:54:50.803Z,77.64
2018-11-26T12:57:17.739Z,78.36
2018-11-26T12:59:44.626Z,77.55
2018-11-26T13:02:11.536Z,77.83
2018-11-26T13:04:38.466Z,78.33
2018-11-26T13:07:05.474Z,78.41
2018-11-26T13:09:32.398Z,79.18
2018-11-26T13:11:59.316Z,79.00
2018-11-26T13:14:26.235Z,79.51
2018-11-26T13:16:53.147Z,79.66
2018-11-26T13:19:20.071Z,78.61
2018-11-26T13:21:46.975Z,79.93
2018-11-26T13:24:13.892Z,80.11
2018-11-26T13:26:40.823Z,80.18
2018-11-26T13:29:07.735Z,80.91
2018-11-26T13:31:34.655Z,81.29
2018-11-26T13:34:01.568Z,81.51
2018-11-26T13:36:28.446Z,81.31
2018-11-26T13:38:55.345Z,81.41
2018-11-26T13:41:22.238Z,81.60
2018-11-26T13:43:49.127Z,81.27
2018-11-26T13:46:16.047Z,81.70
2018-11-26T13:48:42.950Z,82.00
2018-11-26T13:51:09.853Z,81.83
2018-11-26T13:53:36.758Z,81.62
2018-11-26T13:56:03.659Z,80.69
2018-11-26T13:58:30.589Z,81.32
2018-11-26T14:00:57.478Z,81.74
2018-11-26T14:03:24.386Z,80.72
2018-11-26T14:05:51.273Z,80.70
2018-11-26T14:08:18.180Z,81.27
2018-11-26T14:10:45.071Z,81.51
2018-11-26T14:13:13.379Z,81.90
2018-11-26T14:15:40.301Z,81.91
2018-11-26T14:18:07.194Z,80.72
2018-11-26T14:20:34.135Z,81.77
2018-11-26T14:23:01.031Z,80.77
2018-11-26T14:25:27.934Z,81.51
2018-11-26T14:27:54.842Z,81.42
2018-11-26T14:30:23.714Z,80.97
2018-11-26T14:32:50.703Z,80.36
2018-11-26T14:35:17.702Z,80.93
2018-11-26T14:37:45.713Z,81.59
2018-11-26T14:40:16.152Z,82.20
2018-11-26T14:42:43.058Z,82.55
2018-11-26T14:45:11.181Z,82.38
2018-11-26T14:47:38.094Z,83.33
2018-11-26T14:50:08.034Z,83.37
2018-11-26T14:52:34.931Z,83.87
2018-11-26T14:55:01.827Z,83.43
2018-11-26T14:57:28.723Z,84.38
2018-11-26T14:59:55.607Z,84.51
2018-11-26T15:02:22.498Z,84.64
2018-11-26T15:04:49.419Z,84.10
2018-11-26T15:07:16.306Z,84.31
2018-11-26T15:09:43.213Z,85.10
2018-11-26T15:12:10.107Z,84.65
2018-11-26T15:14:36.998Z,84.40
2018-11-26T15:17:03.931Z,84.70
2018-11-26T15:19:30.830Z,85.07
2018-11-26T15:21:57.743Z,85.08
2018-11-26T15:24:24.638Z,86.11
2018-11-26T15:26:53.318Z,85.12
2018-11-26T15:29:18.446Z,85.47
2018-11-26T15:31:50.146Z,85.19
2018-11-26T15:34:12.229Z,85.83
2018-11-26T15:36:39.116Z,86.04
2018-11-26T15:39:08.096Z,86.22
2018-11-26T15:41:35.000Z,85.83
2018-11-26T15:44:01.896Z,86.12
2018-11-26T15:46:28.785Z,86.39
2018-11-26T15:48:55.675Z,85.52
2018-11-26T15:51:22.567Z,85.97
2018-11-26T15:53:49.442Z,86.41
2018-11-26T15:56:16.335Z,86.38
2018-11-26T15:58:43.211Z,85.74
2018-11-26T16:01:10.113Z,85.01
2018-11-26T16:03:36.995Z,85.42
2018-11-26T16:06:03.894Z,85.79
2018-11-26T16:08:30.794Z,84.96
2018-11-26T16:10:57.702Z,85.87
2018-11-26T16:13:24.586Z,84.46
2018-11-26T16:15:51.473Z,85.88
2018-11-26T16:18:20.473Z,85.27
2018-11-26T16:20:48.137Z,84.75
2018-11-26T16:23:15.031Z,84.46
2018-11-26T16:25:43.263Z,85.84
2018-11-26T16:28:12.034Z,85.73
2018-11-26T16:30:38.934Z,85.66
2018-11-26T16:33:06.787Z,86.40
2018-11-26T16:35:33.695Z,86.70
2018-11-26T16:38:00.662Z,86.50
2018-11-26T16:40:27.560Z,86.73
2018-11-26T16:42:54.477Z,87.12
2018-11-26T16:45:22.729Z,86.67
2018-11-26T16:47:51.330Z,86.43
2018-11-26T16:50:19.375Z,86.77
2018-11-26T16:52:46.278Z,86.63
2018-11-26T16:55:14.047Z,87.21
2018-11-26T16:57:41.043Z,87.28
2018-11-26T17:00:13.287Z,86.04
2018-11-26T17:02:40.183Z,86.43
2018-11-26T17:05:09.263Z,87.23
2018-11-26T17:07:36.166Z,87.57
2018-11-26T17:10:03.458Z,86.91
2018-11-26T17:12:30.338Z,86.95
2018-11-26T17:14:57.230Z,86.97
2018-11-26T17:17:24.126Z,86.54
2018-11-26T17:19:51.014Z,86.55
2018-11-26T17:22:17.904Z,87.20
2018-11-26T17:24:44.815Z,86.72
2018-11-26T17:27:12.668Z,87.09
2018-11-26T17:29:38.659Z,87.16
2018-11-26T17:32:05.578Z,87.74
2018-11-26T17:34:32.458Z,87.33
2018-11-26T17:36:59.350Z,88.35
2018-11-26T17:39:26.258Z,88.15
2018-11-26T17:41:53.147Z,88.40
2018-11-26T17:44:20.030Z,88.45
2018-11-26T17:46:46.919Z,88.61
2018-11-26T17:49:13.821Z,87.47
2018-11-26T17:51:40.695Z,88.59
2018-11-26T17:54:07.598Z,88.54
2018-11-26T17:56:34.486Z,87.92
2018-11-26T17:59:01.372Z,89.02
2018-11-26T18:01:33.554Z,89.07
2018-11-26T18:04:00.439Z,89.30
2018-11-26T18:06:27.322Z,90.04
2018-11-26T18:08:54.206Z,89.26
2018-11-26T18:11:21.107Z,89.02
2018-11-26T18:13:47.993Z,90.20
2018-11-26T18:16:15.073Z,90.11
2018-11-26T18:18:42.343Z,90.54
2018-11-26T18:21:09.498Z,89.94
2018-11-26T18:23:36.680Z,90.76
2018-11-26T18:26:04.377Z,91.18
2018-11-26T18:28:31.267Z,91.33
2018-11-26T18:30:58.186Z,91.54
2018-11-26T18:33:25.069Z,91.50
2018-11-26T18:35:52.151Z,90.74
2018-11-26T18:38:19.067Z,90.78
2018-11-26T18:40:48.621Z,91.95
2018-11-26T18:43:15.527Z,91.29
2018-11-26T18:45:42.433Z,92.00
2018-11-26T18:48:14.214Z,92.28
2018-11-26T18:50:41.153Z,92.05
2018-11-26T18:53:08.157Z,92.04
2018-11-26T18:55:35.262Z,91.96
2018-11-26T18:58:02.337Z,91.98
2018-11-26T19:00:34.107Z,92.37
2018-11-26T19:03:01.006Z,92.11
2018-11-26T19:05:27.888Z,92.95
2018-11-26T19:07:54.803Z,92.54
2018-11-26T19:10:24.967Z,92.16
2018-11-26T19:12:58.594Z,92.75
2018-11-26T19:15:31.159Z,92.08
2018-11-26T19:18:07.467Z,92.01
2018-11-26T19:20:34.386Z,91.70
2018-11-26T19:23:01.275Z,92.38
2018-11-26T19:25:28.173Z,91.77
2018-11-26T19:27:55.087Z,91.50
2018-11-26T19:30:23.226Z,91.71
2018-11-26T19:32:48.879Z,92.30
2018-11-26T19:35:15.769Z,91.18
2018-11-26T19:37:42.723Z,91.36
2018-11-26T19:40:12.827Z,91.27
2018-11-26T19:42:40.367Z,91.17
2018-11-26T19:45:12.022Z,91.55
2018-11-26T19:47:38.946Z,91.00
2018-11-26T19:50:07.649Z,90.54
2018-11-26T19:52:34.550Z,91.00
2018-11-26T19:55:01.434Z,90.97
2018-11-26T19:57:28.343Z,90.67
2018-11-26T19:59:55.226Z,91.15
2018-11-26T20:02:22.114Z,91.14
2018-11-26T20:04:52.786Z,90.43
2018-11-26T20:07:19.706Z,90.75
2018-11-26T20:09:46.736Z,90.24
2018-11-26T20:12:13.675Z,90.88
2018-11-26T20:14:40.558Z,91.39
2018-11-26T20:17:07.453Z,90.65
2018-11-26T20:19:34.347Z,90.80
2018-11-26T20:22:01.223Z,91.49
2018-11-26T20:24:28.115Z,91.94
2018-11-26T20:26:55.002Z,91.44
2018-11-26T20:29:21.878Z,91.95
2018-11-26T20:31:48.775Z,92.42
2018-11-26T20:34:15.654Z,92.55
2018-11-26T20:36:42.544Z,91.81
2018-11-26T20:39:09.494Z,92.48
2018-11-26T20:41:36.610Z,92.08
2018-11-26T20:44:03.506Z,93.27
2018-11-26T20:46:30.454Z,93.02
2018-11-26T20:48:57.353Z,92.99
2018-11-26T20:51:24.218Z,93.28
2018-11-26T20:53:51.098Z,92.83
2018-11-26T20:56:18.050Z,92.44
2018-11-26T20:58:45.670Z,91.57
2018-11-26T21:01:12.626Z,91.39
2018-11-26T21:03:40.233Z,91.93
2018-11-26T21:06:07.729Z,91.66
2018-11-26T21:08:35.298Z,91.34
2018-11-26T21:11:02.817Z,91.03
2018-11-26T21:13:30.035Z,91.18
2018-11-26T21:15:57.624Z,90.12
2018-11-26T21:18:24.603Z,90.77
2018-11-26T21:20:51.516Z,90.55
2018-11-26T21:23:35.518Z,90.28
2018-11-26T21:26:05.162Z,89.42
2018-11-26T21:28:32.763Z,88.72
2018-11-26T21:31:00.262Z,89.01
2018-11-26T21:33:27.328Z,89.00
2018-11-26T21:35:54.248Z,88.85
2018-11-26T21:38:21.366Z,88.68
2018-11-26T21:40:48.278Z,88.58
2018-11-26T21:43:15.171Z,89.04
2018-11-26T21:45:45.003Z,89.60
2018-11-26T21:48:12.565Z,89.44
2018-11-26T21:50:40.164Z,90.03
2018-11-26T21:53:09.825Z,90.18
2018-11-26T21:55:37.405Z,89.38
2018-11-26T21:58:05.602Z,89.25
2018-11-26T22:00:32.726Z,89.94
2018-11-26T22:03:05.303Z,88.92
2018-11-26T22:05:32.219Z,89.51
2018-11-26T22:07:59.102Z,88.79
2018-11-26T22:10:26.026Z,89.04
2018-11-26T22:12:54.050Z,90.13
2018-11-26T22:15:20.987Z,90.09
2018-11-26T22:17:47.880Z,90.12
2018-11-26T22:20:16.910Z,89.86
2018-11-26T22:22:43.875Z,90.40
2018-11-26T22:25:11.302Z,90.50
2018-11-26T22:27:38.295Z,90.34
2018-11-26T22:30:12.427Z,90.97
2018-11-26T22:32:39.320Z,90.47
2018-11-26T22:35:06.548Z,91.28
2018-11-26T22:37:33.442Z,91.37
2018-11-26T22:40:00.406Z,91.31
2018-11-26T22:42:27.313Z,90.42
2018-11-26T22:44:54.201Z,91.58
2018-11-26T22:47:21.134Z,90.98
2018-11-26T22:49:48.034Z,90.79
2018-11-26T22:52:14.946Z,90.62
2018-11-26T22:54:41.858Z,91.21
2018-11-26T22:57:08.763Z,90.67
2018-11-26T22:59:35.659Z,91.56
2018-11-26T23:02:02.545Z,91.57
2018-11-26T23:04:29.431Z,90.94
2018-11-26T23:06:56.330Z,91.69
2018-11-26T23:09:23.205Z,90.91
2018-11-26T23:11:50.119Z,91.87
2018-11-26T23:14:17.021Z,91.16
2018-11-26T23:16:46.181Z,92.23
2018-11-26T23:19:13.127Z,91.25
2018-11-26T23:21:40.026Z,92.14
2018-11-26T23:24:06.906Z,91.77
2018-11-26T23:26:33.812Z,91.31
2018-11-26T23:29:00.687Z,92.43
2018-11-26T23:31:27.586Z,92.05
2018-11-26T23:33:54.479Z,91.79
2018-11-26T23:36:21.371Z,91.50
2018-11-26T23:38:49.535Z,91.52
2018-11-26T23:41:16.906Z,91.39
2018-11-26T23:43:43.777Z,90.79
2018-11-26T23:46:10.671Z,91.06
2018-11-26T23:48:37.559Z,90.70
2018-11-26T23:51:05.425Z,90.32
2018-11-26T23:53:32.306Z,90.10
2018-11-26T23:55:59.235Z,90.51
2018-11-26T23:58:26.983Z,90.00
